Time;durP1;ratioP1;P1;durP2;ratioP2;P2;SDS_P1;SDS_P2;PMS_P1;PMS_P2;Temp;Humidity;BMP_temperature;BMP_pressure;BME280_temperature;BME280_humidity;BME280_pressure;Samples;Min_cycle;Max_cycle;Signal;HPM_P1;HPM_P2
2023/06/24 00:00:52;;;;;;;4.22;2.70;;;;;;;23.87;44.12;102393.59;16105272;19;130709;-58
2023/06/24 00:06:18;;;;;;;3.15;2.42;;;;;;;23.87;44.14;102387.16;16106288;19;129603;-57
2023/06/24 00:11:40;;;;;;;2.83;2.50;;;;;;;23.86;44.16;102393.84;16107412;19;131230;-57
2023/06/24 00:17:02;;;;;;;2.97;2.38;;;;;;;23.85;44.23;102392.13;16116631;19;130489;-58
2023/06/24 00:22:24;;;;;;;2.45;2.25;;;;;;;23.85;44.14;102390.19;16120509;19;131565;-60
2023/06/24 00:27:47;;;;;;;3.10;2.20;;;;;;;23.84;44.25;102385.72;16123206;19;130906;-59
2023/06/24 00:33:10;;;;;;;3.25;2.80;;;;;;;23.83;44.21;102395.19;16118803;19;129723;-59
2023/06/24 00:38:32;;;;;;;3.40;2.40;;;;;;;23.83;44.55;102384.00;16122109;19;131313;-57
2023/06/24 00:43:57;;;;;;;3.00;2.50;;;;;;;23.82;44.16;102387.91;16120428;19;130438;-58
2023/06/24 00:49:19;;;;;;;2.50;2.30;;;;;;;23.81;44.58;102389.00;16116428;19;129902;-58
2023/06/24 00:54:44;;;;;;;3.08;2.38;;;;;;;23.81;44.21;102394.56;16121876;19;129694;-57
2023/06/24 01:00:13;;;;;;;3.75;2.33;;;;;;;23.81;44.17;102402.97;16108669;19;129631;-57
2023/06/24 01:05:35;;;;;;;3.50;2.40;;;;;;;23.80;43.89;102390.09;16118575;19;131252;-57
2023/06/24 01:10:57;;;;;;;2.53;2.25;;;;;;;23.78;44.45;102387.53;16125498;19;130093;-57
2023/06/24 01:16:50;;;;;;;2.58;2.22;;;;;;;23.79;44.36;102393.97;16120451;19;130634;-56
2023/06/24 01:22:47;;;;;;;3.15;2.38;;;;;;;23.78;43.87;102397.84;16112198;19;130932;-57
2023/06/24 01:28:24;;;;;;;2.63;2.42;;;;;;;23.77;44.12;102390.56;16104557;19;130343;-57
2023/06/24 01:34:01;;;;;;;2.47;2.17;;;;;;;23.76;44.12;102384.16;16105461;19;131543;-56
2023/06/24 01:39:25;;;;;;;2.78;2.30;;;;;;;23.74;44.16;102385.50;16105428;19;131128;-56
2023/06/24 01:44:49;;;;;;;4.07;2.17;;;;;;;23.75;44.15;102376.00;16105466;19;129671;-57
2023/06/24 01:50:13;;;;;;;2.40;2.03;;;;;;;23.74;44.16;102374.31;16102066;19;129753;-57
2023/06/24 01:55:38;;;;;;;3.30;1.97;;;;;;;23.72;44.24;102376.50;16104814;19;130064;-57
2023/06/24 02:01:01;;;;;;;2.33;2.10;;;;;;;23.72;44.21;102370.91;16099713;19;129934;-56
2023/06/24 02:06:26;;;;;;;2.80;2.10;;;;;;;23.72;44.08;102370.91;16115152;19;134229;-59
2023/06/24 02:11:49;;;;;;;3.30;2.17;;;;;;;23.70;44.04;102367.50;16113031;19;129708;-58
2023/06/24 02:17:12;;;;;;;2.20;1.90;;;;;;;23.71;44.09;102372.00;16114881;19;130568;-58
2023/06/24 02:22:35;;;;;;;2.42;2.20;;;;;;;23.69;43.89;102368.59;16113385;19;130592;-57
2023/06/24 02:27:58;;;;;;;2.20;1.98;;;;;;;23.69;44.17;102371.41;16113971;19;130834;-58
2023/06/24 02:33:20;;;;;;;2.25;2.00;;;;;;;23.68;44.22;102366.91;16113792;19;129076;-58
2023/06/24 02:38:42;;;;;;;3.13;2.25;;;;;;;23.68;44.19;102364.09;16112491;19;130402;-58
2023/06/24 02:44:04;;;;;;;2.20;2.00;;;;;;;23.65;44.44;102357.91;16114705;19;130008;-58
2023/06/24 02:49:27;;;;;;;2.58;2.10;;;;;;;23.65;44.39;102357.91;16113167;19;129946;-56
2023/06/24 02:54:49;;;;;;;2.22;1.90;;;;;;;23.64;44.12;102367.38;16111246;19;130363;-54
2023/06/24 03:00:13;;;;;;;2.10;1.90;;;;;;;23.64;44.16;102363.75;16113379;19;129132;-55
2023/06/24 03:05:35;;;;;;;2.75;2.13;;;;;;;23.63;44.24;102367.66;16114542;19;129506;-53
2023/06/24 03:10:58;;;;;;;2.47;2.00;;;;;;;23.62;44.66;102375.19;16110246;19;130223;-57
2023/06/24 03:16:20;;;;;;;1.98;1.80;;;;;;;23.61;44.14;102384.66;16116905;19;130331;-58
2023/06/24 03:21:42;;;;;;;2.17;1.98;;;;;;;23.61;43.91;102393.03;16121935;19;130468;-58
2023/06/24 03:27:04;;;;;;;2.42;2.13;;;;;;;23.59;44.54;102389.66;16118692;19;129437;-56
2023/06/24 03:32:26;;;;;;;2.08;1.70;;;;;;;23.59;44.17;102384.06;16121441;19;130384;-58
2023/06/24 03:37:48;;;;;;;3.30;2.10;;;;;;;23.58;44.21;102387.94;16126673;19;129389;-58
2023/06/24 03:43:10;;;;;;;2.38;1.83;;;;;;;23.57;44.50;102391.78;16126030;19;130411;-57
2023/06/24 03:48:32;;;;;;;2.80;2.25;;;;;;;23.57;44.21;102399.34;16128914;19;130284;-57
2023/06/24 03:53:54;;;;;;;3.72;2.17;;;;;;;23.56;43.89;102394.84;16126301;19;130535;-58
2023/06/24 03:59:17;;;;;;;2.88;1.92;;;;;;;23.54;43.81;102392.28;16122234;19;135994;-58
2023/06/24 04:04:38;;;;;;;3.03;1.90;;;;;;;23.54;44.04;102397.03;16122798;19;129730;-58
2023/06/24 04:10:02;;;;;;;2.05;1.80;;;;;;;23.54;44.10;102399.81;16127600;19;129606;-56
2023/06/24 04:15:24;;;;;;;3.10;1.88;;;;;;;23.53;44.06;102395.31;16113711;19;130377;-58
2023/06/24 04:20:46;;;;;;;3.40;1.80;;;;;;;23.53;44.16;102395.31;16104491;19;131026;-59
2023/06/24 04:26:08;;;;;;;1.95;1.75;;;;;;;23.53;44.00;102393.38;16103326;19;129494;-58
2023/06/24 04:31:30;;;;;;;2.50;2.30;;;;;;;23.51;44.21;102404.78;16107785;19;129620;-58
2023/06/24 04:36:52;;;;;;;1.58;1.48;;;;;;;23.50;44.26;102405.88;16103969;19;130549;-57
2023/06/24 04:42:14;;;;;;;2.15;1.80;;;;;;;23.51;44.24;102398.34;16106343;19;129716;-58
2023/06/24 04:47:37;;;;;;;2.78;1.98;;;;;;;23.50;44.36;102402.25;16107650;19;134036;-57
2023/06/24 04:53:01;;;;;;;2.22;1.70;;;;;;;23.49;44.23;102401.38;16106106;19;130034;-58
2023/06/24 04:58:23;;;;;;;2.00;1.80;;;;;;;23.49;43.98;102400.56;16113326;19;130945;-56
2023/06/24 05:03:45;;;;;;;2.08;1.85;;;;;;;23.49;43.99;102390.22;16118673;19;131774;-59
2023/06/24 05:09:13;;;;;;;;;;;;;;;23.46;44.55;102390.69;16123080;19;129768;-58
2023/06/24 05:14:36;;;;;;;1.92;1.75;;;;;;;23.49;44.10;102392.19;16114841;19;131644;-58
2023/06/24 05:19:58;;;;;;;1.92;1.73;;;;;;;23.48;44.55;102390.47;16120497;19;130029;-57
2023/06/24 05:25:20;;;;;;;2.17;1.60;;;;;;;23.48;44.14;102390.47;16119546;19;130416;-55
2023/06/24 05:30:45;;;;;;;2.03;1.83;;;;;;;23.48;44.31;102391.31;16119058;19;130890;-57
2023/06/24 05:36:07;;;;;;;2.17;1.98;;;;;;;23.48;44.26;102396.06;16117034;19;131225;-58
2023/06/24 05:41:29;;;;;;;2.38;1.85;;;;;;;23.49;44.24;102406.16;16118727;19;129393;-57
2023/06/24 05:46:51;;;;;;;1.63;1.50;;;;;;;23.49;44.08;102406.16;16111090;19;130782;-57
2023/06/24 05:58:24;;;;;;;5.10;2.13;;;;;;;23.48;43.77;102404.44;16102031;19;130552;-59
2023/06/24 06:03:47;;;;;;;6.22;2.95;;;;;;;23.44;42.44;102406.00;16101766;19;131893;-59
2023/06/24 06:09:09;;;;;;;9.55;3.60;;;;;;;23.29;41.19;102404.56;16106912;19;130364;-59
2023/06/24 06:14:31;;;;;;;5.97;3.30;;;;;;;23.14;40.65;102409.78;16102429;19;130596;-59
2023/06/24 06:19:53;;;;;;;4.18;3.45;;;;;;;23.07;40.86;102409.03;16101168;19;130353;-59
2023/06/24 06:25:15;;;;;;;11.15;3.60;;;;;;;22.98;40.81;102417.75;16105650;19;130703;-59
2023/06/24 06:30:36;;;;;;;7.30;3.80;;;;;;;22.87;40.51;102426.94;16107734;19;129727;-59
2023/06/24 06:35:58;;;;;;;5.07;3.47;;;;;;;22.76;40.72;102419.38;16109293;19;129443;-60
2023/06/24 06:41:24;;;;;;;4.85;3.75;;;;;;;22.66;40.76;102420.78;16109656;19;131415;-59
2023/06/24 06:46:46;;;;;;;;;;;;;;;22.57;40.86;102422.22;16115007;19;129560;-59
2023/06/24 06:52:08;;;;;;;7.28;3.83;;;;;;;22.57;41.30;102420.31;16112878;19;129959;-59
2023/06/24 06:57:30;;;;;;;9.45;4.35;;;;;;;22.57;41.13;102427.81;16114303;19;129496;-59
2023/06/24 07:02:52;;;;;;;6.28;3.97;;;;;;;22.59;41.56;102423.69;16113382;19;129626;-59
2023/06/24 07:08:14;;;;;;;6.45;3.72;;;;;;;22.67;41.15;102433.66;16113461;19;132027;-59
2023/06/24 07:13:36;;;;;;;9.25;4.28;;;;;;;22.68;41.41;102435.34;16110635;19;129519;-59
2023/06/24 07:18:58;;;;;;;6.07;4.45;;;;;;;22.70;41.40;102435.16;16110750;19;130714;-59
2023/06/24 07:24:19;;;;;;;8.40;3.97;;;;;;;22.70;41.57;102438.75;16109461;19;129360;-60
2023/06/24 07:29:41;;;;;;;9.63;4.50;;;;;;;22.71;41.52;102432.09;16111935;19;130891;-59
2023/06/24 07:35:03;;;;;;;6.68;3.88;;;;;;;22.73;41.25;102429.06;16111729;19;130346;-60
2023/06/24 07:40:25;;;;;;;6.47;4.20;;;;;;;22.77;41.50;102435.03;16112257;19;129715;-60
2023/06/24 07:45:47;;;;;;;7.13;3.78;;;;;;;22.80;41.56;102434.53;16110910;19;131217;-61
2023/06/24 07:51:09;;;;;;;6.13;4.22;;;;;;;22.79;41.25;102442.06;16111136;19;129648;-60
2023/06/24 07:56:31;;;;;;;5.50;3.70;;;;;;;22.82;41.02;102427.66;16111737;19;129412;-59
2023/06/24 08:01:53;;;;;;;4.32;3.17;;;;;;;22.87;41.22;102432.53;16111045;19;131475;-60
2023/06/24 08:07:16;;;;;;;7.28;3.83;;;;;;;22.92;41.05;102431.81;16106236;19;131198;-60
2023/06/24 08:12:37;;;;;;;5.68;3.50;;;;;;;22.95;41.09;102426.63;16108151;19;130610;-60
2023/06/24 08:18:00;;;;;;;8.40;3.55;;;;;;;23.03;40.51;102415.09;16109222;19;130018;-59
2023/06/24 08:23:22;;;;;;;11.15;3.17;;;;;;;23.13;40.64;102413.66;16105104;19;129361;-60
2023/06/24 08:28:46;;;;;;;6.72;2.75;;;;;;;23.21;40.59;102421.66;16103469;19;129704;-60
2023/06/24 08:34:08;;;;;;;4.35;2.80;;;;;;;23.27;40.59;102415.09;16115700;19;131141;-60
2023/06/24 08:39:30;;;;;;;4.80;2.67;;;;;;;23.31;40.36;102416.34;16124510;19;129434;-59
2023/06/24 08:44:52;;;;;;;4.35;2.28;;;;;;;23.36;40.53;102412.81;16126340;19;130036;-59
2023/06/24 08:50:16;;;;;;;5.35;2.63;;;;;;;23.41;40.26;102414.88;16120605;19;130636;-60
2023/06/24 08:55:42;;;;;;;4.00;2.58;;;;;;;23.45;40.28;102414.13;16120009;19;129529;-60
2023/06/24 09:01:06;;;;;;;4.05;2.38;;;;;;;23.48;40.33;102413.66;16120422;19;129995;-59
2023/06/24 09:06:27;;;;;;;5.63;2.60;;;;;;;23.50;40.21;102407.84;16121880;19;129774;-60
2023/06/24 09:12:00;;;;;;;3.63;2.53;;;;;;;23.51;40.20;102407.59;16121467;19;129623;-59
2023/06/24 09:17:22;;;;;;;3.72;2.40;;;;;;;23.55;40.42;102407.94;16120224;19;130111;-60
2023/06/24 09:22:44;;;;;;;3.75;2.33;;;;;;;23.58;39.95;102401.91;16119992;19;130787;-58
2023/06/24 09:28:06;;;;;;;8.55;2.42;;;;;;;23.60;40.13;102402.53;16119608;19;131409;-59
2023/06/24 09:33:28;;;;;;;8.40;2.58;;;;;;;23.61;40.01;102390.25;16116595;19;132050;-59
2023/06/24 09:38:50;;;;;;;6.05;2.80;;;;;;;23.65;40.05;102388.66;16120785;19;129889;-60
2023/06/24 09:44:12;;;;;;;3.55;2.15;;;;;;;23.68;40.16;102381.75;16118364;19;129636;-60
2023/06/24 09:49:34;;;;;;;5.40;2.33;;;;;;;23.71;40.31;102380.38;16124136;19;131445;-59
2023/06/24 09:54:58;;;;;;;5.28;2.53;;;;;;;23.73;40.14;102378.19;16122615;19;130001;-59
2023/06/24 10:00:22;;;;;;;5.43;2.23;;;;;;;23.75;40.01;102381.59;16120259;19;130486;-59
2023/06/24 10:05:44;;;;;;;5.45;2.20;;;;;;;23.76;40.41;102369.31;16123403;19;130664;-59
2023/06/24 10:11:06;;;;;;;4.03;2.40;;;;;;;23.78;40.22;102370.78;16122977;19;129378;-58
2023/06/24 10:16:28;;;;;;;2.10;1.90;;;;;;;23.79;39.89;102363.22;16121750;19;129566;-60
2023/06/24 10:21:57;;;;;;;2.58;1.95;;;;;;;23.81;40.25;102358.25;16123665;19;130625;-59
2023/06/24 10:27:21;;;;;;;4.30;1.92;;;;;;;23.82;40.28;102357.16;16116138;19;129372;-59
2023/06/24 10:32:43;;;;;;;2.67;2.00;;;;;;;23.84;40.26;102352.16;16128647;19;130025;-58
2023/06/24 10:38:10;;;;;;;2.70;2.20;;;;;;;23.86;40.14;102347.19;16126339;19;131132;-58
2023/06/24 10:43:32;;;;;;;3.47;2.10;;;;;;;23.85;40.00;102342.69;16128963;19;130384;-58
2023/06/24 10:48:54;;;;;;;6.72;2.13;;;;;;;23.85;39.35;102331.50;16130929;19;130601;-58
2023/06/24 10:54:16;;;;;;;2.45;2.00;;;;;;;23.84;39.00;102329.81;16125517;19;129252;-58
2023/06/24 10:59:41;;;;;;;2.90;1.92;;;;;;;23.83;37.94;102330.91;16128370;19;129548;-59
2023/06/24 11:05:05;;;;;;;4.05;1.70;;;;;;;23.84;37.72;102324.22;16119894;19;129657;-58
2023/06/24 11:10:27;;;;;;;4.13;2.00;;;;;;;23.85;37.53;102319.47;16119756;19;129572;-58
2023/06/24 11:15:49;;;;;;;3.38;1.70;;;;;;;23.87;37.26;102312.56;16114340;19;130880;-58
2023/06/24 11:21:11;;;;;;;3.95;1.70;;;;;;;23.88;37.08;102307.81;16117224;19;129919;-57
2023/06/24 11:26:33;;;;;;;3.83;1.55;;;;;;;23.91;37.25;102307.31;16114638;19;130674;-58
2023/06/24 11:31:55;;;;;;;4.88;1.63;;;;;;;23.94;37.14;102296.47;16111211;19;129383;-57
2023/06/24 11:37:18;;;;;;;2.42;1.58;;;;;;;23.97;37.29;102295.97;16114748;19;129866;-58
2023/06/24 11:42:44;;;;;;;7.10;1.85;;;;;;;23.99;36.82;102294.88;16114303;19;130332;-58
2023/06/24 11:48:07;;;;;;;4.65;1.60;;;;;;;24.02;36.57;102297.16;16117294;19;129428;-57
2023/06/24 11:53:31;;;;;;;5.35;2.13;;;;;;;24.05;36.78;102291.06;16116747;19;131140;-58
2023/06/24 11:58:54;;;;;;;3.53;1.50;;;;;;;24.06;36.75;102292.78;16113264;19;129368;-57
2023/06/24 12:04:16;;;;;;;6.25;2.08;;;;;;;24.03;36.83;102296.06;16109248;19;130007;-58
2023/06/24 12:09:38;;;;;;;2.35;1.67;;;;;;;24.00;37.23;102288.19;16125147;19;130227;-58
2023/06/24 12:15:00;;;;;;;3.75;1.83;;;;;;;23.97;37.12;102273.63;16118808;19;129652;-58
2023/06/24 12:20:24;;;;;;;3.63;1.80;;;;;;;23.94;37.40;102274.13;16123617;19;130260;-58
2023/06/24 12:25:50;;;;;;;4.13;1.70;;;;;;;23.92;37.28;102267.91;16121000;19;129556;-58
2023/06/24 12:31:12;;;;;;;2.42;1.55;;;;;;;23.90;37.19;102264.53;16125850;19;129630;-59
2023/06/24 12:36:35;;;;;;;5.22;2.00;;;;;;;23.91;37.43;102255.03;16128751;19;129619;-58
2023/06/24 12:41:57;;;;;;;5.07;1.95;;;;;;;23.97;37.28;102264.38;16124869;19;130296;-58
2023/06/24 12:47:20;;;;;;;2.70;1.73;;;;;;;24.03;36.88;102251.34;16124894;19;130999;-58
2023/06/24 12:52:42;;;;;;;3.47;2.15;;;;;;;24.09;37.08;102247.56;16121126;19;129894;-58
2023/06/24 12:58:04;;;;;;;6.40;2.13;;;;;;;24.14;37.19;102239.25;16121281;19;129856;-58
2023/06/24 13:03:26;;;;;;;5.72;2.00;;;;;;;24.18;37.03;102237.63;16122494;19;129845;-58
2023/06/24 13:08:47;;;;;;;9.60;2.30;;;;;;;24.21;37.02;102241.88;16119937;19;130701;-62
2023/06/24 13:14:09;;;;;;;12.05;2.67;;;;;;;24.21;36.50;102236.28;16120625;19;130234;-59
2023/06/24 13:19:34;;;;;;;5.68;1.58;;;;;;;24.23;36.36;102226.56;16118371;19;131000;-59
2023/06/24 13:24:57;;;;;;;14.48;2.38;;;;;;;24.25;36.40;102241.13;16121199;19;129666;-59
2023/06/24 13:30:19;;;;;;;17.52;2.50;;;;;;;24.26;36.15;102234.44;16119548;19;130410;-59
2023/06/24 13:35:41;;;;;;;8.70;2.10;;;;;;;24.27;35.44;102227.75;16120608;19;129609;-59
2023/06/24 13:41:03;;;;;;;10.63;2.15;;;;;;;24.26;34.40;102220.47;16117772;19;130142;-60
2023/06/24 13:46:25;;;;;;;12.07;2.10;;;;;;;24.29;33.63;102219.13;16118104;19;130276;-58
2023/06/24 13:51:47;;;;;;;2.67;1.70;;;;;;;24.27;33.41;102210.97;16121897;19;131010;-59
2023/06/24 13:57:09;;;;;;;5.15;1.63;;;;;;;24.30;33.00;102209.66;16120432;19;131025;-59
2023/06/24 14:02:31;;;;;;;3.38;1.70;;;;;;;24.32;32.93;102206.59;16119152;19;130225;-59
2023/06/24 14:07:53;;;;;;;3.13;1.60;;;;;;;24.30;32.93;102198.47;16123336;19;130807;-59
2023/06/24 14:13:17;;;;;;;7.43;1.70;;;;;;;24.27;33.88;102205.38;16120941;19;129782;-58
2023/06/24 14:18:39;;;;;;;5.68;2.00;;;;;;;24.24;34.49;102196.63;16126793;19;130924;-57
2023/06/24 14:24:02;;;;;;;3.15;1.50;;;;;;;24.21;34.68;102195.19;16128941;19;130384;-58
2023/06/24 14:29:36;;;;;;;3.43;1.77;;;;;;;24.19;34.65;102186.22;16128074;19;131108;-56
2023/06/24 14:34:58;;;;;;;3.70;1.63;;;;;;;24.16;34.71;102183.91;16126391;19;129854;-56
2023/06/24 14:40:20;;;;;;;2.50;1.48;;;;;;;24.16;34.84;102183.91;16126609;19;130348;-58
2023/06/24 14:45:42;;;;;;;4.15;1.80;;;;;;;24.16;35.26;102178.31;16120806;19;129509;-58
2023/06/24 14:51:04;;;;;;;4.72;1.80;;;;;;;24.14;35.55;102166.53;16121281;19;129385;-58
2023/06/24 14:56:26;;;;;;;4.68;1.80;;;;;;;24.15;35.67;102173.00;16120117;19;129560;-58
2023/06/24 15:01:48;;;;;;;4.82;1.77;;;;;;;24.15;35.52;102157.06;16120073;19;129465;-59
2023/06/24 15:07:10;;;;;;;2.05;1.60;;;;;;;24.14;35.77;102149.78;16118790;19;129851;-58
2023/06/24 15:12:34;;;;;;;3.38;1.73;;;;;;;24.14;35.98;102155.34;16119871;19;129495;-59
2023/06/24 15:17:56;;;;;;;3.22;1.85;;;;;;;24.13;35.67;102142.47;16118122;19;130885;-59
2023/06/24 15:23:18;;;;;;;2.60;1.80;;;;;;;24.13;36.06;102134.09;16114684;19;130395;-59
2023/06/24 15:28:40;;;;;;;2.10;1.80;;;;;;;24.13;36.10;102131.28;16102773;19;129680;-58
2023/06/24 15:34:01;;;;;;;2.58;1.63;;;;;;;24.13;35.67;102125.72;16106272;19;131793;-58
2023/06/24 15:39:23;;;;;;;2.50;1.88;;;;;;;24.13;36.12;102125.72;16113690;19;129319;-56
2023/06/24 15:44:48;;;;;;;9.98;2.10;;;;;;;24.14;36.01;102116.22;16114011;19;130425;-59
2023/06/24 15:50:10;;;;;;;1.93;1.70;;;;;;;24.15;36.41;102117.09;16107890;19;129520;-56
2023/06/24 15:55:32;;;;;;;2.92;1.80;;;;;;;24.15;36.53;102112.31;16113525;19;131275;-57
2023/06/24 16:00:54;;;;;;;3.55;1.95;;;;;;;24.16;36.40;102114.03;16114894;19;135032;-58
2023/06/24 16:06:15;;;;;;;2.30;1.70;;;;;;;24.17;36.30;102103.69;16116600;19;129400;-57
2023/06/24 16:11:37;;;;;;;3.90;1.60;;;;;;;24.18;36.43;102094.22;16112694;19;130130;-57
2023/06/24 16:16:59;;;;;;;2.38;1.70;;;;;;;24.18;36.41;102092.25;16110064;19;130434;-58
2023/06/24 16:22:21;;;;;;;5.20;2.33;;;;;;;24.18;36.24;102092.25;16108025;19;131386;-56
2023/06/24 16:27:43;;;;;;;3.28;2.20;;;;;;;24.19;36.70;102091.16;16108856;19;129478;-55
2023/06/24 16:33:05;;;;;;;7.90;5.03;;;;;;;24.24;36.26;102085.69;16105195;19;129957;-56
2023/06/24 16:38:27;;;;;;;7.05;5.35;;;;;;;24.31;35.79;102082.66;16106631;19;130289;-57
2023/06/24 16:43:49;;;;;;;6.00;4.68;;;;;;;24.35;35.83;102089.44;16110388;19;129903;-55
2023/06/24 16:49:11;;;;;;;10.70;5.32;;;;;;;24.41;35.58;102079.19;16116972;19;132242;-54
2023/06/24 16:54:33;;;;;;;6.97;4.70;;;;;;;24.45;35.67;102077.56;16123812;19;130329;-57
2023/06/24 16:59:55;;;;;;;8.13;4.63;;;;;;;24.48;35.59;102070.59;16124437;19;130917;-52
2023/06/24 17:05:17;;;;;;;9.07;4.65;;;;;;;24.51;35.62;102068.13;16126359;19;130253;-56
2023/06/24 17:10:39;;;;;;;7.15;3.83;;;;;;;24.54;35.56;102061.19;16130150;19;131513;-56
2023/06/24 17:16:01;;;;;;;5.72;3.65;;;;;;;24.56;35.65;102057.03;16119907;19;129361;-57
2023/06/24 17:21:23;;;;;;;4.88;3.55;;;;;;;24.58;35.26;102057.59;16120234;19;129529;-57
2023/06/24 17:26:44;;;;;;;5.38;3.13;;;;;;;24.61;35.05;102049.81;16123193;19;130681;-58
2023/06/24 17:32:07;;;;;;;6.00;3.42;;;;;;;24.64;34.97;102043.66;16123087;19;130596;-57
2023/06/24 17:37:29;;;;;;;4.63;3.20;;;;;;;24.65;34.91;102048.16;16120796;19;130243;-57
2023/06/24 17:42:51;;;;;;;5.75;3.05;;;;;;;24.66;35.04;102038.66;16118681;19;131275;-54
2023/06/24 17:48:12;;;;;;;6.82;2.92;;;;;;;24.68;35.03;102039.25;16117926;19;129804;-57
2023/06/24 17:53:35;;;;;;;3.45;2.42;;;;;;;24.68;35.05;102037.28;16118696;19;131139;-57
2023/06/24 17:58:57;;;;;;;4.47;3.08;;;;;;;24.70;34.25;102034.25;16116614;19;130135;-57
2023/06/24 18:04:19;;;;;;;3.35;2.53;;;;;;;24.70;34.35;102026.69;16118648;19;130395;-54
2023/06/24 18:09:41;;;;;;;3.50;2.67;;;;;;;24.72;34.16;102032.03;16116798;19;130289;-56
2023/06/24 18:15:03;;;;;;;3.78;2.13;;;;;;;24.73;34.40;102031.75;16118368;19;129754;-56
2023/06/24 18:20:25;;;;;;;3.45;2.50;;;;;;;24.75;34.28;102031.50;16119792;19;130699;-57
2023/06/24 18:25:47;;;;;;;4.03;2.45;;;;;;;24.74;34.56;102024.19;16115774;19;130314;-58
2023/06/24 18:31:09;;;;;;;6.30;2.42;;;;;;;24.74;34.45;102024.19;16115369;19;130047;-57
2023/06/24 18:36:31;;;;;;;4.22;2.20;;;;;;;24.71;34.63;102025.56;16112483;19;129735;-54
2023/06/24 18:41:53;;;;;;;7.50;2.40;;;;;;;24.68;34.54;102014.06;16114376;19;130658;-58
2023/06/24 18:47:15;;;;;;;2.75;1.95;;;;;;;24.65;34.52;102020.19;16108096;19;130523;-56
2023/06/24 18:52:37;;;;;;;3.63;2.08;;;;;;;24.62;34.70;102010.38;16112143;19;131018;-57
2023/06/24 18:57:59;;;;;;;3.65;2.13;;;;;;;24.60;35.05;102012.56;16112378;19;129617;-57
2023/06/24 19:03:21;;;;;;;4.82;2.15;;;;;;;24.57;35.48;102002.75;16109921;19;131309;-56
2023/06/24 19:08:43;;;;;;;4.28;1.90;;;;;;;24.58;35.29;102003.59;16114260;19;131587;-57
2023/06/24 19:14:05;;;;;;;5.97;2.40;;;;;;;24.55;35.72;102010.56;16110732;19;131261;-56
2023/06/24 19:19:27;;;;;;;3.65;2.20;;;;;;;24.54;35.61;102003.28;16114226;19;129629;-55
2023/06/24 19:24:49;;;;;;;9.45;2.60;;;;;;;24.51;35.94;102003.78;16113071;19;130116;-54
2023/06/24 19:30:11;;;;;;;3.72;2.10;;;;;;;24.48;35.84;102001.53;16108354;19;131006;-56
2023/06/24 19:35:32;;;;;;;3.33;2.35;;;;;;;24.46;35.85;102000.94;16110752;19;131342;-54
2023/06/24 19:40:54;;;;;;;3.20;2.10;;;;;;;24.44;36.43;102003.16;16108085;19;130136;-57
2023/06/24 19:46:16;;;;;;;3.33;2.35;;;;;;;24.41;36.38;102003.66;16107261;19;130595;-56
2023/06/24 19:51:56;;;;;;;3.97;2.03;;;;;;;24.39;36.67;102005.88;16104486;19;129431;-56
2023/06/24 19:57:20;;;;;;;2.20;1.70;;;;;;;24.37;36.63;102002.50;16106531;19;129513;-56
2023/06/24 20:02:43;;;;;;;5.53;2.10;;;;;;;24.34;36.52;101992.66;16109940;19;129881;-56
2023/06/24 20:08:05;;;;;;;2.47;1.80;;;;;;;24.33;36.77;101992.94;16110093;19;130833;-56
2023/06/24 20:13:27;;;;;;;2.15;1.52;;;;;;;24.33;36.65;101990.16;16110170;19;130450;-56
2023/06/24 20:18:50;;;;;;;5.15;2.20;;;;;;;24.32;37.06;101994.88;16106885;19;130179;-57
2023/06/24 20:24:12;;;;;;;3.20;2.00;;;;;;;24.33;36.89;101998.53;16103565;19;131507;-60
2023/06/24 20:29:34;;;;;;;5.40;2.05;;;;;;;24.32;36.93;101994.03;16120355;19;130478;-56
2023/06/24 20:34:56;;;;;;;3.75;2.53;;;;;;;24.29;37.44;102006.59;16123967;19;130864;-57
2023/06/24 20:40:18;;;;;;;6.80;2.17;;;;;;;24.25;37.31;102006.25;16124078;19;129647;-59
2023/06/24 20:45:40;;;;;;;3.03;2.22;;;;;;;24.24;37.69;102004.59;16114496;19;130837;-59
2023/06/24 20:51:02;;;;;;;4.43;2.47;;;;;;;24.23;37.86;102002.84;16121765;19;129731;-57
2023/06/24 20:56:24;;;;;;;5.45;2.42;;;;;;;24.21;38.36;101999.47;16122339;19;130744;-56
2023/06/24 21:01:46;;;;;;;5.43;2.90;;;;;;;24.21;38.30;101999.47;16118085;19;130800;-58
2023/06/24 21:07:07;;;;;;;5.90;3.25;;;;;;;24.22;38.77;102000.31;16120763;19;130661;-58
2023/06/24 21:12:29;;;;;;;6.68;3.13;;;;;;;24.22;38.43;101995.56;16120652;19;131482;-58
2023/06/24 21:17:51;;;;;;;6.20;4.00;;;;;;;24.23;39.36;101996.41;16118410;19;131111;-59
2023/06/24 21:23:13;;;;;;;8.88;3.80;;;;;;;24.24;39.38;101987.81;16115150;19;130363;-58
2023/06/24 21:28:37;;;;;;;6.45;3.80;;;;;;;24.24;39.66;101986.91;16118835;19;130592;-56
2023/06/24 21:33:59;;;;;;;7.47;4.20;;;;;;;24.24;39.75;101996.19;16115636;19;131977;-58
2023/06/24 21:39:21;;;;;;;7.30;3.92;;;;;;;24.21;39.98;101993.88;16118776;19;131002;-58
2023/06/24 21:44:43;;;;;;;7.15;4.10;;;;;;;24.22;39.77;101986.31;16118647;19;129427;-59
2023/06/24 21:50:05;;;;;;;6.60;3.72;;;;;;;24.21;39.82;101976.25;16118851;19;129743;-59
2023/06/24 21:55:27;;;;;;;5.10;3.88;;;;;;;24.20;39.82;101981.00;16113135;19;131956;-59
2023/06/24 22:00:49;;;;;;;6.05;3.88;;;;;;;24.19;39.61;101990.50;16117888;19;130886;-59
2023/06/24 22:06:11;;;;;;;7.15;4.22;;;;;;;24.19;40.00;101981.25;16116789;19;131319;-59
2023/06/24 22:11:33;;;;;;;4.18;3.70;;;;;;;24.17;40.10;101975.91;16111851;19;129613;-57
2023/06/24 22:16:57;;;;;;;4.95;3.85;;;;;;;24.17;40.16;101981.50;16116716;19;130596;-57
2023/06/24 22:22:21;;;;;;;7.00;4.40;;;;;;;24.17;39.93;101978.72;16116229;19;130353;-58
2023/06/24 22:27:43;;;;;;;4.97;4.30;;;;;;;24.17;40.20;101970.31;16112512;19;131222;-57
2023/06/24 22:33:05;;;;;;;8.68;5.00;;;;;;;24.17;40.40;101973.13;16115172;19;130681;-57
2023/06/24 22:38:27;;;;;;;9.02;5.57;;;;;;;24.15;40.43;101966.94;16113608;19;130855;-58
2023/06/24 22:43:50;;;;;;;7.55;5.28;;;;;;;24.15;40.51;101961.34;16107298;19;130847;-57
2023/06/24 22:49:12;;;;;;;9.65;5.03;;;;;;;24.15;40.35;101960.53;16102195;19;132163;-57
2023/06/24 22:54:34;;;;;;;5.78;5.10;;;;;;;24.13;40.62;101960.75;16109924;19;130356;-57
2023/06/24 22:59:56;;;;;;;7.43;4.82;;;;;;;24.14;40.37;101958.81;16106427;19;132404;-56
2023/06/24 23:05:18;;;;;;;5.78;4.85;;;;;;;24.12;40.46;101956.31;16109519;19;131313;-57
2023/06/24 23:10:40;;;;;;;8.00;4.63;;;;;;;24.12;40.46;101961.88;16105783;19;130902;-58
2023/06/24 23:16:02;;;;;;;7.90;4.97;;;;;;;24.11;40.61;101954.59;16110222;19;129673;-56
2023/06/24 23:21:25;;;;;;;6.82;4.80;;;;;;;24.10;40.71;101950.13;16105831;19;129368;-57
2023/06/24 23:26:50;;;;;;;5.63;5.07;;;;;;;24.12;40.76;101953.50;16113416;19;129802;-57
2023/06/24 23:32:13;;;;;;;9.85;5.28;;;;;;;24.09;40.80;101942.84;16108949;19;130796;-56
2023/06/24 23:37:35;;;;;;;5.65;4.85;;;;;;;24.10;40.64;101934.19;16107099;19;129441;-58
2023/06/24 23:42:58;;;;;;;7.97;5.05;;;;;;;24.08;40.76;101932.75;16106950;19;129710;-58
2023/06/24 23:48:20;;;;;;;4.93;4.28;;;;;;;24.08;40.55;101928.00;16106108;19;131219;-57
2023/06/24 23:53:42;;;;;;;4.80;4.30;;;;;;;24.07;40.48;101919.88;16103551;19;130094;-58
2023/06/24 23:59:04;;;;;;;5.47;4.80;;;;;;;24.06;40.97;101919.00;16109299;19;132056;-56
